Time;durP1;ratioP1;P1;durP2;ratioP2;P2;SDS_P1;SDS_P2;PMS_P1;PMS_P2;Temp;Humidity;BMP_temperature;BMP_pressure;BME280_temperature;BME280_humidity;BME280_pressure;Samples;Min_cycle;Max_cycle;Signal;HPM_P1;HPM_P2
2022/10/10 00:00:39;;;;;;;;;;;20.70;95.50;;;;;;5063007;28;19917;-75
2022/10/10 00:03:06;;;;;;;;;;;20.30;96.40;;;;;;5055471;28;19920;-78
2022/10/10 00:05:33;;;;;;;;;;;19.80;96.90;;;;;;5057578;28;19920;-78
2022/10/10 00:08:00;;;;;;;;;;;19.30;96.40;;;;;;5055813;28;19917;-75
2022/10/10 00:10:27;;;;;;;;;;;18.90;97.00;;;;;;5054734;28;19928;-74
2022/10/10 00:12:53;;;;;;;;;;;18.60;97.20;;;;;;5062889;28;19967;-74
2022/10/10 00:15:20;;;;;;;;;;;18.40;98.10;;;;;;5055078;28;19916;-80
2022/10/10 00:17:47;;;;;;;;;;;18.30;98.50;;;;;;5057253;28;19920;-74
2022/10/10 00:20:15;;;;;;;;;;;18.50;98.60;;;;;;5059352;28;19974;-75
2022/10/10 00:22:42;;;;;;;;;;;18.60;98.70;;;;;;5057024;28;19916;-75
2022/10/10 00:25:09;;;;;;;;;;;19.50;98.60;;;;;;5053579;28;20022;-80
2022/10/10 00:27:36;;;;;;;;;;;20.70;98.50;;;;;;5052420;28;19947;-78
2022/10/10 00:30:04;;;;;;;;;;;21.20;96.80;;;;;;5054520;28;19924;-84
2022/10/10 00:32:31;;;;;;;;;;;21.30;96.90;;;;;;5042472;28;20307;-84
2022/10/10 00:34:58;;;;;;;;;;;21.10;96.90;;;;;;5037937;28;19964;-81
2022/10/10 00:37:24;;;;;;;;;;;21.00;97.10;;;;;;5030639;28;19920;-79
2022/10/10 00:39:51;;;;;;;;;;;21.00;97.50;;;;;;5034938;28;19969;-80
2022/10/10 00:42:18;;;;;;;;;;;21.30;96.70;;;;;;5033432;28;19921;-77
2022/10/10 00:44:45;;;;;;;;;;;21.60;96.10;;;;;;5036117;28;19917;-79
2022/10/10 00:47:12;;;;;;;;;;;21.40;95.60;;;;;;5040702;28;20371;-80
2022/10/10 00:49:41;;;;;;;;;;;21.10;95.90;;;;;;5038737;28;19921;-80
2022/10/10 00:52:10;;;;;;;;;;;21.00;95.80;;;;;;5043948;28;20119;-81
2022/10/10 00:54:38;;;;;;;;;;;20.70;96.00;;;;;;5039410;28;19943;-72
2022/10/10 00:57:08;;;;;;;;;;;20.50;97.00;;;;;;5037289;28;20001;-71
2022/10/10 00:59:36;;;;;;;;;;;20.20;96.50;;;;;;5046304;28;20334;-73
2022/10/10 01:02:04;;;;;;;;;;;19.80;97.30;;;;;;5040469;28;20004;-74
2022/10/10 01:04:36;;;;;;;;;;;19.60;97.40;;;;;;5035344;28;19916;-73
2022/10/10 01:07:04;;;;;;;;;;;19.30;97.80;;;;;;5038791;28;19913;-72
2022/10/10 01:09:32;;;;;;;;;;;19.10;98.10;;;;;;5038611;28;19921;-78
2022/10/10 01:12:17;;;;;;;;;;;18.80;98.60;;;;;;5038735;28;19967;-76
2022/10/10 01:14:46;;;;;;;;;;;18.60;98.90;;;;;;5032539;28;19939;-81
2022/10/10 01:17:18;;;;;;;;;;;18.50;99.20;;;;;;5038333;28;19917;-82
2022/10/10 01:20:03;;;;;;;;;;;18.40;98.90;;;;;;5040224;28;19916;-81
2022/10/10 01:22:36;;;;;;;;;;;18.30;98.70;;;;;;5053190;28;20360;-81
2022/10/10 01:25:18;;;;;;;;;;;18.20;98.80;;;;;;5049192;28;19917;-80
2022/10/10 01:27:44;;;;;;;;;;;18.00;99.10;;;;;;5055038;28;19917;-80
2022/10/10 01:30:16;;;;;;;;;;;17.90;99.40;;;;;;5054716;28;19916;-77
2022/10/10 01:32:52;;;;;;;;;;;17.80;99.60;;;;;;5074080;28;19925;-82
2022/10/10 01:35:27;;;;;;;;;;;17.70;99.60;;;;;;5086118;28;20262;-80
2022/10/10 01:37:59;;;;;;;;;;;17.60;99.60;;;;;;5073577;28;19912;-79
2022/10/10 01:40:29;;;;;;;;;;;17.50;99.60;;;;;;5078793;28;19947;-78
2022/10/10 01:42:58;;;;;;;;;;;17.50;99.60;;;;;;5071645;28;20260;-79
2022/10/10 01:45:26;;;;;;;;;;;17.40;99.40;;;;;;5068446;28;19916;-80
2022/10/10 01:47:54;;;;;;;;;;;17.30;99.40;;;;;;5069564;28;19913;-79
2022/10/10 01:50:23;;;;;;;;;;;17.20;99.70;;;;;;5068323;28;19920;-81
2022/10/10 01:52:49;;;;;;;;;;;17.20;99.70;;;;;;5069651;28;19954;-80
2022/10/10 01:55:34;;;;;;;;;;;17.10;99.70;;;;;;5068507;28;19984;-81
2022/10/10 01:58:01;;;;;;;;;;;17.00;99.70;;;;;;5068203;28;20291;-79
2022/10/10 02:00:28;;;;;;;;;;;16.90;99.60;;;;;;5068505;28;19940;-79
2022/10/10 02:02:58;;;;;;;;;;;16.90;99.60;;;;;;5071137;28;19920;-79
2022/10/10 02:05:40;;;;;;;;;;;16.90;99.80;;;;;;5068406;28;20371;-80
2022/10/10 02:08:09;;;;;;;;;;;16.90;99.90;;;;;;5068932;28;19924;-78
2022/10/10 02:10:47;;;;;;;;;;;17.00;99.90;;;;;;5070402;28;19917;-80
2022/10/10 02:13:18;;;;;;;;;;;16.90;99.90;;;;;;5069687;28;19923;-80
2022/10/10 02:15:46;;;;;;;;;;;17.00;99.90;;;;;;5070201;28;19916;-79
2022/10/10 02:18:15;;;;;;;;;;;17.00;99.90;;;;;;5068794;28;19921;-79
2022/10/10 02:20:43;;;;;;;;;;;17.10;99.90;;;;;;5070022;28;19920;-79
2022/10/10 02:23:12;;;;;;;;;;;17.30;99.80;;;;;;5066918;28;20136;-80
2022/10/10 02:25:40;;;;;;;;;;;17.50;99.50;;;;;;5068157;28;20308;-79
2022/10/10 02:28:09;;;;;;;;;;;17.60;99.20;;;;;;5069921;28;19966;-83
2022/10/10 02:30:37;;;;;;;;;;;17.90;99.10;;;;;;5068711;28;19944;-81
2022/10/10 02:33:05;;;;;;;;;;;18.60;98.70;;;;;;5067986;28;19924;-80
2022/10/10 02:35:34;;;;;;;;;;;19.20;98.20;;;;;;5068756;28;20423;-80
2022/10/10 02:38:02;;;;;;;;;;;19.40;97.50;;;;;;5070044;28;20295;-80
2022/10/10 02:40:30;;;;;;;;;;;19.40;97.40;;;;;;5066386;28;20113;-81
2022/10/10 02:42:59;;;;;;;;;;;19.40;96.90;;;;;;5070363;28;19924;-81
2022/10/10 02:45:27;;;;;;;;;;;19.30;96.90;;;;;;5068580;28;20283;-84
2022/10/10 02:47:54;;;;;;;;;;;19.20;96.90;;;;;;5069193;28;19913;-79
2022/10/10 02:50:21;;;;;;;;;;;19.00;97.30;;;;;;5067712;28;20359;-78
2022/10/10 02:52:48;;;;;;;;;;;18.80;97.20;;;;;;5059688;28;19930;-79
2022/10/10 02:55:14;;;;;;;;;;;18.70;97.60;;;;;;5061258;28;20074;-78
2022/10/10 02:57:41;;;;;;;;;;;18.60;97.50;;;;;;5062732;28;19935;-84
2022/10/10 03:00:08;;;;;;;;;;;18.50;97.40;;;;;;5060652;28;19923;-83
2022/10/10 03:02:35;;;;;;;;;;;18.40;97.80;;;;;;5063145;28;19916;-83
2022/10/10 03:05:02;;;;;;;;;;;18.30;98.10;;;;;;5063515;28;20348;-87
2022/10/10 03:07:28;;;;;;;;;;;18.30;97.60;;;;;;5058618;28;19978;-78
2022/10/10 03:09:56;;;;;;;;;;;18.30;97.90;;;;;;5062657;28;19917;-78
2022/10/10 03:12:22;;;;;;;;;;;18.50;97.80;;;;;;5076859;28;19920;-82
2022/10/10 03:14:49;;;;;;;;;;;18.80;97.60;;;;;;5071049;28;19924;-83
2022/10/10 03:17:16;;;;;;;;;;;19.20;97.10;;;;;;5067972;28;19927;-86
2022/10/10 03:19:42;;;;;;;;;;;19.90;97.40;;;;;;5068588;28;19928;-83
2022/10/10 03:22:09;;;;;;;;;;;20.60;96.40;;;;;;5075252;28;19916;-89
2022/10/10 03:24:36;;;;;;;;;;;20.80;96.00;;;;;;5068201;28;19913;-87
2022/10/10 03:27:02;;;;;;;;;;;20.50;95.80;;;;;;5067265;28;20379;-86
2022/10/10 03:29:29;;;;;;;;;;;20.10;95.90;;;;;;5065503;28;19917;-82
2022/10/10 03:31:56;;;;;;;;;;;19.80;96.50;;;;;;5067314;28;19924;-80
2022/10/10 03:34:22;;;;;;;;;;;19.50;96.80;;;;;;5061610;28;19948;-82
2022/10/10 03:36:49;;;;;;;;;;;19.30;96.60;;;;;;5067469;28;20367;-87
2022/10/10 03:39:16;;;;;;;;;;;19.30;97.00;;;;;;5065842;28;20015;-86
2022/10/10 03:41:42;;;;;;;;;;;19.20;96.60;;;;;;5074601;28;20259;-84
2022/10/10 03:44:09;;;;;;;;;;;19.20;96.90;;;;;;5066191;28;19962;-86
2022/10/10 03:46:36;;;;;;;;;;;19.20;97.10;;;;;;5072955;28;19916;-87
2022/10/10 03:49:02;;;;;;;;;;;19.20;96.90;;;;;;5067707;28;19912;-87
2022/10/10 03:51:29;;;;;;;;;;;19.10;96.90;;;;;;5073200;28;20428;-87
2022/10/10 03:53:56;;;;;;;;;;;19.10;97.10;;;;;;5069067;28;19978;-83
2022/10/10 03:56:22;;;;;;;;;;;19.10;97.00;;;;;;5064440;28;19920;-85
2022/10/10 03:58:49;;;;;;;;;;;19.20;97.30;;;;;;5067166;28;19919;-83
2022/10/10 04:01:16;;;;;;;;;;;19.20;96.90;;;;;;5062638;28;20143;-87
2022/10/10 04:03:42;;;;;;;;;;;19.30;96.70;;;;;;5063962;28;19923;-81
2022/10/10 04:06:09;;;;;;;;;;;19.60;97.10;;;;;;5075995;28;19920;-87
2022/10/10 04:08:36;;;;;;;;;;;19.80;96.20;;;;;;5061604;28;20023;-80
2022/10/10 04:11:02;;;;;;;;;;;20.20;96.30;;;;;;5070367;28;20055;-82
2022/10/10 04:13:29;;;;;;;;;;;20.30;95.80;;;;;;5089278;28;19924;-82
2022/10/10 04:15:56;;;;;;;;;;;20.20;96.10;;;;;;5077393;28;19912;-81
2022/10/10 04:18:23;;;;;;;;;;;20.50;95.70;;;;;;5079988;28;20380;-77
2022/10/10 04:20:49;;;;;;;;;;;20.50;95.10;;;;;;5081838;28;19921;-77
2022/10/10 04:23:16;;;;;;;;;;;20.30;95.40;;;;;;5089597;28;20206;-83
2022/10/10 04:25:43;;;;;;;;;;;20.10;95.60;;;;;;5077715;28;19916;-76
2022/10/10 04:28:11;;;;;;;;;;;19.90;95.70;;;;;;5069882;28;19925;-83
2022/10/10 04:30:37;;;;;;;;;;;19.60;96.10;;;;;;5068061;28;20430;-78
2022/10/10 04:33:04;;;;;;;;;;;19.50;96.30;;;;;;5069316;28;20448;-87
2022/10/10 04:35:31;;;;;;;;;;;19.50;96.70;;;;;;5068671;28;19942;-87
2022/10/10 04:37:57;;;;;;;;;;;19.30;96.60;;;;;;5072158;28;19930;-82
2022/10/10 04:40:27;;;;;;;;;;;19.30;96.70;;;;;;5070238;28;19970;-78
2022/10/10 04:42:54;;;;;;;;;;;19.20;96.50;;;;;;5074380;28;19916;-82
2022/10/10 04:45:21;;;;;;;;;;;19.00;96.60;;;;;;5062578;28;19958;-80
2022/10/10 04:47:48;;;;;;;;;;;18.90;96.90;;;;;;5062947;28;19917;-84
2022/10/10 04:50:15;;;;;;;;;;;18.80;96.90;;;;;;5060392;28;19916;-81
2022/10/10 04:52:41;;;;;;;;;;;18.80;97.40;;;;;;5063376;28;20527;-85
2022/10/10 04:55:08;;;;;;;;;;;18.80;97.70;;;;;;5062334;28;19916;-85
2022/10/10 04:57:35;;;;;;;;;;;18.80;96.80;;;;;;5059091;28;19928;-81
2022/10/10 05:00:03;;;;;;;;;;;18.80;96.50;;;;;;5060886;28;19923;-86
2022/10/10 05:02:29;;;;;;;;;;;18.80;96.60;;;;;;5059035;28;20652;-83
2022/10/10 05:04:56;;;;;;;;;;;18.80;96.90;;;;;;5060837;28;20377;-87
2022/10/10 05:07:23;;;;;;;;;;;18.90;96.70;;;;;;5057926;28;20367;-84
2022/10/10 05:09:50;;;;;;;;;;;18.90;96.50;;;;;;5061128;28;19974;-85
2022/10/10 05:12:16;;;;;;;;;;;18.90;96.20;;;;;;5061557;28;20006;-81
2022/10/10 05:14:43;;;;;;;;;;;18.80;96.70;;;;;;5062374;28;20381;-77
2022/10/10 05:17:10;;;;;;;;;;;18.60;97.00;;;;;;5064370;28;19973;-83
2022/10/10 05:19:36;;;;;;;;;;;18.50;97.10;;;;;;5058343;28;19924;-82
2022/10/10 05:22:03;;;;;;;;;;;18.50;97.30;;;;;;5063787;28;20017;-81
2022/10/10 05:24:30;;;;;;;;;;;18.50;97.40;;;;;;5065554;28;19912;-83
2022/10/10 05:26:56;;;;;;;;;;;18.40;97.60;;;;;;5061971;28;20377;-86
2022/10/10 05:29:23;;;;;;;;;;;18.30;97.50;;;;;;5052315;28;19920;-78
2022/10/10 05:31:50;;;;;;;;;;;18.20;97.40;;;;;;5056788;28;19956;-82
2022/10/10 05:34:16;;;;;;;;;;;18.20;97.60;;;;;;5058421;28;19924;-82
2022/10/10 05:36:43;;;;;;;;;;;18.20;97.50;;;;;;5068182;28;19913;-89
2022/10/10 05:39:10;;;;;;;;;;;18.10;97.40;;;;;;5077842;28;19966;-80
2022/10/10 05:41:37;;;;;;;;;;;18.00;97.50;;;;;;5088058;28;20224;-86
2022/10/10 05:44:03;;;;;;;;;;;18.00;97.80;;;;;;5077423;28;20033;-79
2022/10/10 05:46:30;;;;;;;;;;;17.90;97.80;;;;;;5066345;28;20287;-84
2022/10/10 05:48:57;;;;;;;;;;;17.90;98.10;;;;;;5070462;28;19916;-78
2022/10/10 05:51:24;;;;;;;;;;;17.80;97.90;;;;;;5085262;28;19948;-77
2022/10/10 05:53:50;;;;;;;;;;;17.70;98.10;;;;;;5077391;28;19920;-83
2022/10/10 05:56:17;;;;;;;;;;;17.70;98.10;;;;;;5071481;28;19916;-86
2022/10/10 05:58:44;;;;;;;;;;;17.60;98.20;;;;;;5077432;28;19919;-85
2022/10/10 06:01:11;;;;;;;;;;;17.60;98.10;;;;;;5080027;28;19966;-82
2022/10/10 06:03:37;;;;;;;;;;;17.70;97.90;;;;;;5068728;28;20303;-80
2022/10/10 06:06:04;;;;;;;;;;;17.70;97.80;;;;;;5074448;28;19916;-85
2022/10/10 06:08:31;;;;;;;;;;;17.70;97.70;;;;;;5056614;28;20371;-82
2022/10/10 06:11:04;;;;;;;;;;;17.60;97.80;;;;;;5069424;28;19913;-83
2022/10/10 06:13:31;;;;;;;;;;;17.50;97.90;;;;;;5062489;28;20397;-86
2022/10/10 06:15:58;;;;;;;;;;;17.50;98.50;;;;;;5062363;28;19920;-86
2022/10/10 06:18:25;;;;;;;;;;;17.50;98.20;;;;;;5063603;28;19951;-85
2022/10/10 06:20:52;;;;;;;;;;;17.40;98.10;;;;;;5061804;28;20334;-86
2022/10/10 06:23:19;;;;;;;;;;;17.40;98.00;;;;;;5071717;28;19965;-82
2022/10/10 06:25:46;;;;;;;;;;;17.30;98.20;;;;;;5068718;28;19916;-84
2022/10/10 06:28:12;;;;;;;;;;;17.30;98.40;;;;;;5063255;28;20865;-79
2022/10/10 06:30:40;;;;;;;;;;;17.20;98.30;;;;;;5080580;28;19919;-82
2022/10/10 06:33:07;;;;;;;;;;;17.10;98.20;;;;;;5066121;28;19963;-83
2022/10/10 06:35:33;;;;;;;;;;;17.10;98.40;;;;;;5068848;28;19918;-87
2022/10/10 06:38:00;;;;;;;;;;;17.00;98.70;;;;;;5072814;28;19916;-87
2022/10/10 06:40:27;;;;;;;;;;;16.90;98.70;;;;;;5074242;28;19916;-84
2022/10/10 06:42:53;;;;;;;;;;;16.90;98.90;;;;;;5067736;28;19916;-85
2022/10/10 06:45:20;;;;;;;;;;;16.90;98.60;;;;;;5068182;28;19913;-87
2022/10/10 06:47:47;;;;;;;;;;;16.70;98.70;;;;;;5066662;28;19917;-86
2022/10/10 06:50:13;;;;;;;;;;;16.70;99.20;;;;;;5073813;28;19924;-83
2022/10/10 06:52:40;;;;;;;;;;;16.70;99.20;;;;;;5067831;28;20355;-87
2022/10/10 06:55:07;;;;;;;;;;;16.60;99.40;;;;;;5066094;28;20019;-86
2022/10/10 06:57:34;;;;;;;;;;;16.60;99.40;;;;;;5071374;28;19921;-86
2022/10/10 07:00:00;;;;;;;;;;;16.60;99.20;;;;;;5067982;28;19924;-88
2022/10/10 07:02:27;;;;;;;;;;;16.50;99.20;;;;;;5069382;28;19920;-80
2022/10/10 07:04:54;;;;;;;;;;;16.50;99.40;;;;;;5065466;28;19920;-87
2022/10/10 07:07:20;;;;;;;;;;;16.40;99.30;;;;;;5074746;28;19985;-81
2022/10/10 07:09:47;;;;;;;;;;;16.30;99.40;;;;;;5070339;28;19927;-81
2022/10/10 07:12:14;;;;;;;;;;;16.30;99.70;;;;;;5080975;28;20703;-87
2022/10/10 07:14:41;;;;;;;;;;;16.30;99.70;;;;;;5068762;28;20039;-86
2022/10/10 07:17:07;;;;;;;;;;;16.30;99.90;;;;;;5070022;28;19923;-86
2022/10/10 07:19:36;;;;;;;;;;;16.30;99.90;;;;;;5067362;28;19944;-87
2022/10/10 07:22:03;;;;;;;;;;;16.20;99.90;;;;;;5071920;28;20406;-88
2022/10/10 07:24:30;;;;;;;;;;;16.20;99.90;;;;;;5073084;28;19912;-84
2022/10/10 07:26:57;;;;;;;;;;;16.20;99.90;;;;;;5071419;28;19917;-85
2022/10/10 07:29:23;;;;;;;;;;;16.20;99.90;;;;;;5071915;28;19963;-89
2022/10/10 07:31:50;;;;;;;;;;;16.10;99.90;;;;;;5072116;28;19966;-87
2022/10/10 07:34:17;;;;;;;;;;;16.10;99.90;;;;;;5071886;28;19923;-89
2022/10/10 07:36:47;;;;;;;;;;;16.10;99.90;;;;;;5071807;28;20016;-87
2022/10/10 07:39:14;;;;;;;;;;;16.10;99.90;;;;;;5060215;28;20378;-89
2022/10/10 07:41:41;;;;;;;;;;;16.00;99.90;;;;;;5072833;28;19909;-88
2022/10/10 07:44:10;;;;;;;;;;;16.00;99.90;;;;;;5073549;28;19913;-85
2022/10/10 07:46:37;;;;;;;;;;;16.00;99.90;;;;;;5074093;28;20375;-84
2022/10/10 07:49:03;;;;;;;;;;;16.00;99.90;;;;;;5070451;28;19917;-82
2022/10/10 07:51:30;;;;;;;;;;;16.00;99.90;;;;;;5067982;28;20042;-87
2022/10/10 07:53:57;;;;;;;;;;;15.90;99.90;;;;;;5069755;28;19928;-81
2022/10/10 07:56:24;;;;;;;;;;;15.90;99.90;;;;;;5080123;28;19930;-86
2022/10/10 07:58:50;;;;;;;;;;;15.90;99.90;;;;;;5078020;28;19974;-86
2022/10/10 08:01:17;;;;;;;;;;;15.90;99.90;;;;;;5078645;28;19986;-83
2022/10/10 08:03:44;;;;;;;;;;;15.90;99.90;;;;;;5078379;28;19916;-86
2022/10/10 08:06:12;;;;;;;;;;;15.80;99.90;;;;;;5076906;28;19974;-85
2022/10/10 08:08:40;;;;;;;;;;;15.70;99.90;;;;;;5079541;28;19944;-88
2022/10/10 08:11:07;;;;;;;;;;;15.60;99.90;;;;;;5081435;28;20058;-84
2022/10/10 08:13:36;;;;;;;;;;;15.60;99.90;;;;;;5078715;28;19920;-86
2022/10/10 08:16:03;;;;;;;;;;;15.50;99.90;;;;;;5077061;28;19962;-86
2022/10/10 08:18:30;;;;;;;;;;;15.40;99.90;;;;;;5073036;28;19908;-86
2022/10/10 08:21:00;;;;;;;;;;;15.40;99.90;;;;;;5075826;28;19917;-89
2022/10/10 08:23:27;;;;;;;;;;;15.30;99.90;;;;;;5073422;28;19958;-82
2022/10/10 08:25:57;;;;;;;;;;;15.20;99.90;;;;;;5059454;28;20003;-87
2022/10/10 08:28:23;;;;;;;;;;;15.10;99.90;;;;;;5066043;28;19909;-87
2022/10/10 08:30:50;;;;;;;;;;;15.10;99.90;;;;;;5083304;28;19912;-88
2022/10/10 08:33:17;;;;;;;;;;;15.00;99.90;;;;;;5070752;28;19928;-87
2022/10/10 08:35:43;;;;;;;;;;;15.00;99.90;;;;;;5076169;28;19916;-86
2022/10/10 08:38:11;;;;;;;;;;;15.00;99.90;;;;;;5082628;28;19927;-74
2022/10/10 08:40:42;;;;;;;;;;;15.00;99.90;;;;;;5089335;28;19940;-85
2022/10/10 08:43:15;;;;;;;;;;;15.00;99.90;;;;;;5077159;28;19966;-84
2022/10/10 08:45:42;;;;;;;;;;;15.00;99.90;;;;;;5057221;28;19916;-87
2022/10/10 08:48:14;;;;;;;;;;;15.10;99.90;;;;;;5073612;28;19916;-83
2022/10/10 08:50:45;;;;;;;;;;;15.10;99.90;;;;;;5063875;28;19986;-85
2022/10/10 08:53:15;;;;;;;;;;;15.10;99.90;;;;;;5074849;28;19973;-88
2022/10/10 08:55:45;;;;;;;;;;;15.10;99.90;;;;;;5074153;28;19922;-85
2022/10/10 08:58:18;;;;;;;;;;;15.10;99.90;;;;;;5074166;28;20256;-90
2022/10/10 09:00:50;;;;;;;;;;;15.10;99.90;;;;;;5072672;28;19920;-84
2022/10/10 09:03:35;;;;;;;;;;;15.10;99.90;;;;;;5063856;28;20366;-80
2022/10/10 09:06:05;;;;;;;;;;;15.10;99.90;;;;;;5076885;28;20440;-81
2022/10/10 09:08:31;;;;;;;;;;;15.10;99.90;;;;;;5070479;28;19920;-80
2022/10/10 09:11:07;;;;;;;;;;;15.10;99.90;;;;;;5078204;28;19918;-83
2022/10/10 09:13:36;;;;;;;;;;;15.10;99.90;;;;;;5062600;28;20496;-84
2022/10/10 09:16:07;;;;;;;;;;;15.10;99.90;;;;;;5073238;28;19927;-83
2022/10/10 09:18:53;;;;;;;;;;;15.10;99.90;;;;;;5080472;28;19951;-82
2022/10/10 09:21:23;;;;;;;;;;;15.10;99.90;;;;;;5089982;28;20274;-86
2022/10/10 09:24:00;;;;;;;;;;;15.10;99.90;;;;;;5083516;28;19920;-77
2022/10/10 09:26:28;;;;;;;;;;;15.10;99.90;;;;;;5081502;28;20501;-78
2022/10/10 09:28:55;;;;;;;;;;;15.10;99.90;;;;;;5074964;28;19917;-82
2022/10/10 09:31:24;;;;;;;;;;;15.10;99.90;;;;;;5101577;28;19916;-75
2022/10/10 09:33:50;;;;;;;;;;;15.00;99.90;;;;;;5063340;28;19972;-77
2022/10/10 09:36:19;;;;;;;;;;;15.00;99.90;;;;;;5073739;28;19955;-77
2022/10/10 09:38:52;;;;;;;;;;;15.00;99.90;;;;;;5066356;28;20001;-79
2022/10/10 09:41:22;;;;;;;;;;;15.00;99.90;;;;;;5072700;28;19925;-82
2022/10/10 09:43:54;;;;;;;;;;;15.00;99.90;;;;;;5069325;28;19916;-75
2022/10/10 09:46:20;;;;;;;;;;;15.00;99.90;;;;;;5071777;28;20013;-83
2022/10/10 09:48:47;;;;;;;;;;;15.00;99.90;;;;;;5069841;28;19920;-81
2022/10/10 09:51:16;;;;;;;;;;;15.00;99.90;;;;;;5059254;28;19913;-77
2022/10/10 09:53:43;;;;;;;;;;;15.00;99.90;;;;;;5066052;28;20016;-77
2022/10/10 09:56:29;;;;;;;;;;;15.00;99.90;;;;;;5071691;28;19958;-81
2022/10/10 09:58:56;;;;;;;;;;;15.10;99.90;;;;;;5068168;28;20102;-78
2022/10/10 10:01:24;;;;;;;;;;;15.00;99.90;;;;;;5068013;28;19919;-82
2022/10/10 10:04:14;;;;;;;;;;;15.10;99.90;;;;;;5074142;28;19965;-81
2022/10/10 10:06:43;;;;;;;;;;;15.10;99.90;;;;;;5071803;28;20264;-76
2022/10/10 10:09:14;;;;;;;;;;;15.10;99.90;;;;;;5068644;28;19974;-75
2022/10/10 10:11:40;;;;;;;;;;;15.10;99.90;;;;;;5074869;28;19912;-79
2022/10/10 10:14:19;;;;;;;;;;;15.10;99.90;;;;;;5072881;28;19932;-80
2022/10/10 10:16:46;;;;;;;;;;;15.00;99.90;;;;;;5075690;28;20355;-80
2022/10/10 10:19:29;;;;;;;;;;;15.00;99.90;;;;;;5069240;28;20015;-83
2022/10/10 10:21:55;;;;;;;;;;;15.00;99.90;;;;;;5070257;28;19920;-81
2022/10/10 10:24:28;;;;;;;;;;;15.00;99.90;;;;;;5065797;28;19919;-79
2022/10/10 10:26:54;;;;;;;;;;;14.90;99.90;;;;;;5072384;28;20007;-80
2022/10/10 10:29:27;;;;;;;;;;;14.90;99.90;;;;;;5077337;28;19913;-80
2022/10/10 10:31:59;;;;;;;;;;;14.90;99.90;;;;;;5069940;28;20023;-84
2022/10/10 10:34:38;;;;;;;;;;;14.90;99.90;;;;;;5073615;28;19942;-80
2022/10/10 10:37:20;;;;;;;;;;;14.90;99.90;;;;;;5093657;28;19916;-76
2022/10/10 10:40:07;;;;;;;;;;;14.80;99.90;;;;;;5084614;28;20398;-79
2022/10/10 10:42:33;;;;;;;;;;;14.80;99.90;;;;;;5078537;28;19916;-77
2022/10/10 10:45:10;;;;;;;;;;;14.70;99.90;;;;;;5076385;28;19979;-78
2022/10/10 10:47:43;;;;;;;;;;;14.80;99.90;;;;;;5070990;28;19916;-80
2022/10/10 10:50:24;;;;;;;;;;;14.80;99.90;;;;;;5073689;28;19938;-78
2022/10/10 10:52:51;;;;;;;;;;;14.80;99.90;;;;;;5069687;28;19921;-73
2022/10/10 10:55:25;;;;;;;;;;;14.80;99.90;;;;;;5068418;28;20357;-81
2022/10/10 10:58:14;;;;;;;;;;;14.80;99.90;;;;;;5066839;28;19919;-79
2022/10/10 11:00:49;;;;;;;;;;;14.80;99.90;;;;;;5078715;28;19913;-77
2022/10/10 11:03:15;;;;;;;;;;;14.80;99.90;;;;;;5080553;28;19916;-80
2022/10/10 11:05:51;;;;;;;;;;;14.80;99.90;;;;;;5073145;28;19916;-77
2022/10/10 11:08:24;;;;;;;;;;;14.80;99.90;;;;;;5068704;28;20336;-77
2022/10/10 11:10:51;;;;;;;;;;;14.80;99.90;;;;;;5079767;28;19936;-77
2022/10/10 11:13:21;;;;;;;;;;;14.80;99.90;;;;;;5074406;28;20208;-77
2022/10/10 11:15:51;;;;;;;;;;;14.80;99.90;;;;;;5074493;28;19912;-80
2022/10/10 11:18:17;;;;;;;;;;;14.80;99.90;;;;;;5076164;28;20015;-84
2022/10/10 11:20:47;;;;;;;;;;;14.90;99.90;;;;;;5068707;28;19913;-80
2022/10/10 11:23:22;;;;;;;;;;;14.90;99.90;;;;;;5068316;28;20056;-80
2022/10/10 11:25:53;;;;;;;;;;;14.80;99.90;;;;;;5066750;28;19924;-81
2022/10/10 11:28:29;;;;;;;;;;;14.80;99.90;;;;;;5068643;28;20367;-79
2022/10/10 11:31:02;;;;;;;;;;;14.80;99.90;;;;;;5070657;28;20318;-79
2022/10/10 11:33:46;;;;;;;;;;;14.80;99.90;;;;;;5070545;28;19966;-79
2022/10/10 11:36:18;;;;;;;;;;;14.80;99.90;;;;;;5069754;28;19966;-76
2022/10/10 11:38:53;;;;;;;;;;;14.80;99.90;;;;;;5068600;28;19959;-77
2022/10/10 11:41:37;;;;;;;;;;;14.80;99.90;;;;;;5074882;28;19909;-80
2022/10/10 11:44:09;;;;;;;;;;;14.80;99.90;;;;;;5070002;28;19917;-75
2022/10/10 11:46:39;;;;;;;;;;;14.80;99.90;;;;;;5072197;28;20290;-81
2022/10/10 11:49:12;;;;;;;;;;;14.80;99.90;;;;;;5071031;28;19912;-82
2022/10/10 11:51:50;;;;;;;;;;;14.80;99.90;;;;;;5065677;28;19913;-75
2022/10/10 11:54:29;;;;;;;;;;;14.80;99.90;;;;;;5076357;28;19974;-80
2022/10/10 11:56:57;;;;;;;;;;;14.70;99.90;;;;;;5065940;28;19966;-79
2022/10/10 11:59:31;;;;;;;;;;;14.70;99.90;;;;;;5072431;28;19913;-76
2022/10/10 12:01:59;;;;;;;;;;;14.70;99.90;;;;;;5072587;28;19923;-79
2022/10/10 12:04:33;;;;;;;;;;;14.60;99.90;;;;;;5069575;28;19917;-76
2022/10/10 12:07:05;;;;;;;;;;;14.60;99.90;;;;;;5073414;28;19999;-82
2022/10/10 12:09:43;;;;;;;;;;;14.50;99.90;;;;;;5070770;28;19966;-82
2022/10/10 12:12:16;;;;;;;;;;;14.50;99.90;;;;;;5080381;28;19916;-78
2022/10/10 12:14:44;;;;;;;;;;;14.50;99.90;;;;;;5067974;28;19916;-82
2022/10/10 12:17:21;;;;;;;;;;;14.50;99.90;;;;;;5070829;28;20290;-73
2022/10/10 12:19:50;;;;;;;;;;;14.50;99.90;;;;;;5067365;28;19970;-75
2022/10/10 12:22:34;;;;;;;;;;;14.50;99.90;;;;;;5069417;28;20003;-80
2022/10/10 12:25:07;;;;;;;;;;;14.50;99.90;;;;;;5069085;28;19974;-78
2022/10/10 12:27:44;;;;;;;;;;;14.50;99.90;;;;;;5070765;28;19923;-83
2022/10/10 12:30:19;;;;;;;;;;;14.50;99.90;;;;;;5067681;28;20381;-80
2022/10/10 12:32:46;;;;;;;;;;;14.50;99.90;;;;;;5071474;28;19928;-78
2022/10/10 12:35:22;;;;;;;;;;;14.50;99.90;;;;;;5071918;28;20290;-77
2022/10/10 12:38:14;;;;;;;;;;;14.50;99.90;;;;;;5071697;28;19916;-78
2022/10/10 12:40:56;;;;;;;;;;;14.50;99.90;;;;;;5068294;28;19920;-76
2022/10/10 12:43:24;;;;;;;;;;;14.50;99.90;;;;;;5068218;28;19913;-75
2022/10/10 12:46:06;;;;;;;;;;;14.50;99.90;;;;;;5059809;28;19916;-78
2022/10/10 12:48:33;;;;;;;;;;;14.50;99.90;;;;;;5066004;28;20691;-76
2022/10/10 12:51:00;;;;;;;;;;;14.50;99.90;;;;;;5068545;28;19923;-79
2022/10/10 12:53:28;;;;;;;;;;;14.50;99.90;;;;;;5068334;28;19935;-75
2022/10/10 12:56:00;;;;;;;;;;;14.50;99.90;;;;;;5066042;28;20011;-74
2022/10/10 12:58:36;;;;;;;;;;;14.50;99.90;;;;;;5064937;28;19921;-74
2022/10/10 13:01:05;;;;;;;;;;;14.50;99.90;;;;;;5060265;28;19927;-74
2022/10/10 13:03:37;;;;;;;;;;;14.50;99.90;;;;;;5061324;28;19921;-77
2022/10/10 13:06:05;;;;;;;;;;;14.40;99.90;;;;;;5069218;28;19969;-76
2022/10/10 13:08:36;;;;;;;;;;;14.40;99.90;;;;;;5058706;28;19916;-78
2022/10/10 13:11:02;;;;;;;;;;;14.40;99.90;;;;;;5072527;28;19916;-77
2022/10/10 13:13:29;;;;;;;;;;;14.40;99.90;;;;;;5070412;28;20352;-76
2022/10/10 13:15:57;;;;;;;;;;;14.40;99.90;;;;;;5068625;28;20289;-78
2022/10/10 13:18:37;;;;;;;;;;;14.40;99.90;;;;;;5065243;28;19919;-76
2022/10/10 13:21:05;;;;;;;;;;;14.40;99.90;;;;;;5060378;28;19916;-74
2022/10/10 13:23:34;;;;;;;;;;;14.40;99.90;;;;;;5061663;28;19920;-78
2022/10/10 13:26:00;;;;;;;;;;;14.40;99.90;;;;;;5060994;28;19919;-77
2022/10/10 13:28:27;;;;;;;;;;;14.40;99.90;;;;;;5059117;28;20015;-74
2022/10/10 13:30:54;;;;;;;;;;;14.40;99.90;;;;;;5056507;28;19916;-75
2022/10/10 13:33:22;;;;;;;;;;;14.40;99.90;;;;;;5059700;28;20383;-76
2022/10/10 13:35:49;;;;;;;;;;;14.40;99.90;;;;;;5064483;28;19970;-77
2022/10/10 13:38:19;;;;;;;;;;;14.40;99.90;;;;;;5061542;28;19920;-76
2022/10/10 13:40:46;;;;;;;;;;;14.40;99.90;;;;;;5067129;28;19919;-73
2022/10/10 13:43:13;;;;;;;;;;;14.40;99.90;;;;;;5070267;28;19920;-73
2022/10/10 13:46:12;;;;;;;;;;;14.40;99.90;;;;;;5061365;28;20005;-75
2022/10/10 13:48:39;;;;;;;;;;;14.40;99.90;;;;;;5052144;28;19952;-73
2022/10/10 13:51:10;;;;;;;;;;;14.40;99.90;;;;;;5069210;28;19912;-77
2022/10/10 13:53:44;;;;;;;;;;;14.30;99.90;;;;;;5065520;28;19927;-73
2022/10/10 13:56:11;;;;;;;;;;;14.30;99.90;;;;;;5067641;28;20076;-77
2022/10/10 13:58:40;;;;;;;;;;;14.30;99.90;;;;;;5061708;28;20390;-75
2022/10/10 14:01:27;;;;;;;;;;;14.30;99.90;;;;;;5059275;28;19962;-75
2022/10/10 14:03:56;;;;;;;;;;;14.20;99.90;;;;;;5060791;28;19923;-76
2022/10/10 14:06:25;;;;;;;;;;;14.20;99.90;;;;;;5067881;28;19959;-73
2022/10/10 14:08:52;;;;;;;;;;;14.30;99.90;;;;;;5068060;28;19917;-75
2022/10/10 14:11:20;;;;;;;;;;;14.30;99.90;;;;;;5073973;28;19908;-75
2022/10/10 14:13:49;;;;;;;;;;;14.20;99.90;;;;;;5074360;28;19986;-73
2022/10/10 14:16:18;;;;;;;;;;;14.20;99.90;;;;;;5068670;28;19977;-76
2022/10/10 14:18:45;;;;;;;;;;;14.20;99.90;;;;;;5069039;28;20288;-75
2022/10/10 14:21:12;;;;;;;;;;;14.20;99.90;;;;;;5070436;28;19913;-74
2022/10/10 14:23:39;;;;;;;;;;;14.20;99.90;;;;;;5069687;28;19912;-73
2022/10/10 14:26:11;;;;;;;;;;;14.20;99.90;;;;;;5066166;28;20287;-76
2022/10/10 14:28:38;;;;;;;;;;;14.10;99.90;;;;;;5070640;28;19916;-74